sensor_id;sensor_type;location;lat;lon;timestamp;temperature;humidity
62363;DHT22;48396;48.426;1.500;2022-11-20T00:00:25;9.50;94.80
62363;DHT22;48396;48.426;1.500;2022-11-20T00:02:50;9.60;94.70
62363;DHT22;48396;48.426;1.500;2022-11-20T00:05:16;9.60;94.60
62363;DHT22;48396;48.426;1.500;2022-11-20T00:07:42;9.60;94.60
62363;DHT22;48396;48.426;1.500;2022-11-20T00:10:08;9.70;94.50
62363;DHT22;48396;48.426;1.500;2022-11-20T00:12:34;9.50;94.40
62363;DHT22;48396;48.426;1.500;2022-11-20T00:14:59;9.40;94.70
62363;DHT22;48396;48.426;1.500;2022-11-20T00:17:26;9.50;94.90
62363;DHT22;48396;48.426;1.500;2022-11-20T00:19:51;9.40;94.70
62363;DHT22;48396;48.426;1.500;2022-11-20T00:22:17;9.40;94.80
62363;DHT22;48396;48.426;1.500;2022-11-20T00:24:43;9.50;94.70
62363;DHT22;48396;48.426;1.500;2022-11-20T00:27:09;9.10;94.80
62363;DHT22;48396;48.426;1.500;2022-11-20T00:29:34;8.90;95.80
62363;DHT22;48396;48.426;1.500;2022-11-20T00:32:00;8.80;96.00
62363;DHT22;48396;48.426;1.500;2022-11-20T00:34:26;9.00;95.90
62363;DHT22;48396;48.426;1.500;2022-11-20T00:36:51;8.90;96.00
62363;DHT22;48396;48.426;1.500;2022-11-20T00:39:17;8.60;96.60
62363;DHT22;48396;48.426;1.500;2022-11-20T00:41:43;8.60;96.70
62363;DHT22;48396;48.426;1.500;2022-11-20T00:44:08;8.60;97.00
62363;DHT22;48396;48.426;1.500;2022-11-20T00:46:34;8.60;96.80
62363;DHT22;48396;48.426;1.500;2022-11-20T00:49:00;8.80;96.60
62363;DHT22;48396;48.426;1.500;2022-11-20T00:51:27;8.80;96.70
62363;DHT22;48396;48.426;1.500;2022-11-20T00:53:55;8.60;96.70
62363;DHT22;48396;48.426;1.500;2022-11-20T00:56:21;8.40;97.20
62363;DHT22;48396;48.426;1.500;2022-11-20T00:58:48;8.60;97.20
62363;DHT22;48396;48.426;1.500;2022-11-20T01:01:19;8.70;97.00
62363;DHT22;48396;48.426;1.500;2022-11-20T01:03:50;8.70;96.80
62363;DHT22;48396;48.426;1.500;2022-11-20T01:06:35;8.70;96.70
62363;DHT22;48396;48.426;1.500;2022-11-20T01:09:07;8.90;96.50
62363;DHT22;48396;48.426;1.500;2022-11-20T01:11:38;8.90;96.30
62363;DHT22;48396;48.426;1.500;2022-11-20T01:14:09;8.50;96.80
62363;DHT22;48396;48.426;1.500;2022-11-20T01:16:38;8.70;96.90
62363;DHT22;48396;48.426;1.500;2022-11-20T01:19:06;8.70;97.00
62363;DHT22;48396;48.426;1.500;2022-11-20T01:21:38;9.00;96.50
62363;DHT22;48396;48.426;1.500;2022-11-20T01:24:05;9.20;96.10
62363;DHT22;48396;48.426;1.500;2022-11-20T01:26:35;9.40;95.80
62363;DHT22;48396;48.426;1.500;2022-11-20T01:29:03;9.50;95.40
62363;DHT22;48396;48.426;1.500;2022-11-20T01:31:34;9.50;95.20
62363;DHT22;48396;48.426;1.500;2022-11-20T01:34:02;9.60;95.20
62363;DHT22;48396;48.426;1.500;2022-11-20T01:36:30;9.50;95.10
62363;DHT22;48396;48.426;1.500;2022-11-20T01:38:58;8.90;95.60
62363;DHT22;48396;48.426;1.500;2022-11-20T01:41:32;8.80;96.30
62363;DHT22;48396;48.426;1.500;2022-11-20T01:44:19;9.00;96.10
62363;DHT22;48396;48.426;1.500;2022-11-20T01:46:56;9.10;96.10
62363;DHT22;48396;48.426;1.500;2022-11-20T01:49:34;9.10;95.90
62363;DHT22;48396;48.426;1.500;2022-11-20T01:52:15;8.90;96.10
62363;DHT22;48396;48.426;1.500;2022-11-20T01:55:04;8.30;97.40
62363;DHT22;48396;48.426;1.500;2022-11-20T01:57:31;8.30;97.60
62363;DHT22;48396;48.426;1.500;2022-11-20T02:00:19;8.10;98.10
62363;DHT22;48396;48.426;1.500;2022-11-20T02:02:55;8.30;98.00
62363;DHT22;48396;48.426;1.500;2022-11-20T02:08:10;8.80;96.80
62363;DHT22;48396;48.426;1.500;2022-11-20T02:10:36;8.90;96.60
62363;DHT22;48396;48.426;1.500;2022-11-20T02:13:02;8.90;96.30
62363;DHT22;48396;48.426;1.500;2022-11-20T02:15:47;8.80;96.30
62363;DHT22;48396;48.426;1.500;2022-11-20T02:18:15;8.90;96.60
62363;DHT22;48396;48.426;1.500;2022-11-20T02:20:44;8.90;96.70
62363;DHT22;48396;48.426;1.500;2022-11-20T02:23:30;9.10;96.50
62363;DHT22;48396;48.426;1.500;2022-11-20T02:25:58;9.20;96.10
62363;DHT22;48396;48.426;1.500;2022-11-20T02:28:26;9.00;96.00
62363;DHT22;48396;48.426;1.500;2022-11-20T02:30:52;8.80;96.60
62363;DHT22;48396;48.426;1.500;2022-11-20T02:33:18;8.60;96.60
62363;DHT22;48396;48.426;1.500;2022-11-20T02:35:45;8.30;97.70
62363;DHT22;48396;48.426;1.500;2022-11-20T02:38:12;8.00;98.30
62363;DHT22;48396;48.426;1.500;2022-11-20T02:40:38;8.10;98.30
62363;DHT22;48396;48.426;1.500;2022-11-20T02:43:04;8.50;97.70
62363;DHT22;48396;48.426;1.500;2022-11-20T02:45:30;8.80;97.10
62363;DHT22;48396;48.426;1.500;2022-11-20T02:47:56;9.10;96.50
62363;DHT22;48396;48.426;1.500;2022-11-20T02:50:21;9.20;96.20
62363;DHT22;48396;48.426;1.500;2022-11-20T02:52:47;9.40;95.80
62363;DHT22;48396;48.426;1.500;2022-11-20T02:55:13;9.20;95.70
62363;DHT22;48396;48.426;1.500;2022-11-20T02:57:39;9.20;95.60
62363;DHT22;48396;48.426;1.500;2022-11-20T03:00:05;9.20;95.70
62363;DHT22;48396;48.426;1.500;2022-11-20T03:02:32;8.70;96.00
62363;DHT22;48396;48.426;1.500;2022-11-20T03:04:58;8.00;97.70
62363;DHT22;48396;48.426;1.500;2022-11-20T03:07:24;7.50;99.00
62363;DHT22;48396;48.426;1.500;2022-11-20T03:09:50;7.30;99.60
62363;DHT22;48396;48.426;1.500;2022-11-20T03:12:15;7.60;99.50
62363;DHT22;48396;48.426;1.500;2022-11-20T03:14:41;8.10;98.60
62363;DHT22;48396;48.426;1.500;2022-11-20T03:17:07;8.50;97.80
62363;DHT22;48396;48.426;1.500;2022-11-20T03:19:33;8.70;97.20
62363;DHT22;48396;48.426;1.500;2022-11-20T03:21:59;8.40;97.50
62363;DHT22;48396;48.426;1.500;2022-11-20T03:24:25;7.70;99.00
62363;DHT22;48396;48.426;1.500;2022-11-20T03:26:51;7.50;99.90
62363;DHT22;48396;48.426;1.500;2022-11-20T03:29:17;7.60;99.80
62363;DHT22;48396;48.426;1.500;2022-11-20T03:31:43;7.80;99.50
62363;DHT22;48396;48.426;1.500;2022-11-20T03:34:10;8.00;99.00
62363;DHT22;48396;48.426;1.500;2022-11-20T03:36:41;8.40;98.40
62363;DHT22;48396;48.426;1.500;2022-11-20T03:39:07;8.70;97.70
62363;DHT22;48396;48.426;1.500;2022-11-20T03:41:37;8.80;97.30
62363;DHT22;48396;48.426;1.500;2022-11-20T03:44:06;9.00;97.00
62363;DHT22;48396;48.426;1.500;2022-11-20T03:46:32;8.90;96.60
62363;DHT22;48396;48.426;1.500;2022-11-20T03:48:58;8.70;97.10
62363;DHT22;48396;48.426;1.500;2022-11-20T03:51:27;8.70;97.30
62363;DHT22;48396;48.426;1.500;2022-11-20T03:53:55;8.40;97.40
62363;DHT22;48396;48.426;1.500;2022-11-20T03:56:29;8.10;98.40
62363;DHT22;48396;48.426;1.500;2022-11-20T03:58:55;8.30;98.20
62363;DHT22;48396;48.426;1.500;2022-11-20T04:01:32;8.60;97.60
62363;DHT22;48396;48.426;1.500;2022-11-20T04:03:58;8.70;97.10
62363;DHT22;48396;48.426;1.500;2022-11-20T04:06:30;8.20;98.10
62363;DHT22;48396;48.426;1.500;2022-11-20T04:08:59;8.30;98.10
62363;DHT22;48396;48.426;1.500;2022-11-20T04:11:30;8.40;97.70
62363;DHT22;48396;48.426;1.500;2022-11-20T04:14:00;8.60;97.50
62363;DHT22;48396;48.426;1.500;2022-11-20T04:16:28;8.00;98.30
62363;DHT22;48396;48.426;1.500;2022-11-20T04:18:56;7.70;99.30
62363;DHT22;48396;48.426;1.500;2022-11-20T04:21:22;7.50;99.70
62363;DHT22;48396;48.426;1.500;2022-11-20T04:23:49;7.70;99.90
62363;DHT22;48396;48.426;1.500;2022-11-20T04:26:15;8.00;99.10
62363;DHT22;48396;48.426;1.500;2022-11-20T04:28:40;8.10;99.10
62363;DHT22;48396;48.426;1.500;2022-11-20T04:31:08;8.10;98.60
62363;DHT22;48396;48.426;1.500;2022-11-20T04:33:35;8.10;98.90
62363;DHT22;48396;48.426;1.500;2022-11-20T04:36:06;7.90;99.40
62363;DHT22;48396;48.426;1.500;2022-11-20T04:38:33;7.90;99.20
62363;DHT22;48396;48.426;1.500;2022-11-20T04:41:00;8.20;98.80
62363;DHT22;48396;48.426;1.500;2022-11-20T04:43:26;8.60;98.20
62363;DHT22;48396;48.426;1.500;2022-11-20T04:45:56;8.60;97.60
62363;DHT22;48396;48.426;1.500;2022-11-20T04:48:23;8.60;97.70
62363;DHT22;48396;48.426;1.500;2022-11-20T04:50:49;8.60;97.80
62363;DHT22;48396;48.426;1.500;2022-11-20T04:53:15;8.50;97.70
62363;DHT22;48396;48.426;1.500;2022-11-20T04:55:41;8.60;97.80
62363;DHT22;48396;48.426;1.500;2022-11-20T04:58:07;8.80;97.50
62363;DHT22;48396;48.426;1.500;2022-11-20T05:00:33;8.90;97.10
62363;DHT22;48396;48.426;1.500;2022-11-20T05:02:58;8.90;96.90
62363;DHT22;48396;48.426;1.500;2022-11-20T05:05:24;8.90;96.90
62363;DHT22;48396;48.426;1.500;2022-11-20T05:07:50;8.70;97.20
62363;DHT22;48396;48.426;1.500;2022-11-20T05:10:15;8.30;98.00
62363;DHT22;48396;48.426;1.500;2022-11-20T05:12:41;8.40;97.90
62363;DHT22;48396;48.426;1.500;2022-11-20T05:15:08;8.60;97.20
62363;DHT22;48396;48.426;1.500;2022-11-20T05:17:34;8.50;97.40
62363;DHT22;48396;48.426;1.500;2022-11-20T05:19:59;8.50;97.50
62363;DHT22;48396;48.426;1.500;2022-11-20T05:22:25;8.70;97.30
62363;DHT22;48396;48.426;1.500;2022-11-20T05:24:51;8.90;97.00
62363;DHT22;48396;48.426;1.500;2022-11-20T05:27:17;9.00;96.70
62363;DHT22;48396;48.426;1.500;2022-11-20T05:29:43;9.00;96.40
62363;DHT22;48396;48.426;1.500;2022-11-20T05:32:09;9.00;96.60
62363;DHT22;48396;48.426;1.500;2022-11-20T05:34:35;9.00;96.60
62363;DHT22;48396;48.426;1.500;2022-11-20T05:37:02;9.00;96.40
62363;DHT22;48396;48.426;1.500;2022-11-20T05:39:28;8.60;97.20
62363;DHT22;48396;48.426;1.500;2022-11-20T05:41:54;8.70;97.10
62363;DHT22;48396;48.426;1.500;2022-11-20T05:44:39;8.90;96.90
62363;DHT22;48396;48.426;1.500;2022-11-20T05:47:07;9.00;96.80
62363;DHT22;48396;48.426;1.500;2022-11-20T05:49:33;8.80;96.90
62363;DHT22;48396;48.426;1.500;2022-11-20T05:51:58;8.50;97.50
62363;DHT22;48396;48.426;1.500;2022-11-20T05:54:24;8.60;97.40
62363;DHT22;48396;48.426;1.500;2022-11-20T05:56:50;8.40;97.60
62363;DHT22;48396;48.426;1.500;2022-11-20T05:59:16;8.40;98.00
62363;DHT22;48396;48.426;1.500;2022-11-20T06:01:41;8.20;98.10
62363;DHT22;48396;48.426;1.500;2022-11-20T06:04:07;8.00;98.70
62363;DHT22;48396;48.426;1.500;2022-11-20T06:06:33;8.10;99.00
62363;DHT22;48396;48.426;1.500;2022-11-20T06:08:59;8.20;99.00
62363;DHT22;48396;48.426;1.500;2022-11-20T06:11:25;8.40;98.60
62363;DHT22;48396;48.426;1.500;2022-11-20T06:13:51;8.70;98.20
62363;DHT22;48396;48.426;1.500;2022-11-20T06:16:19;8.60;98.20
62363;DHT22;48396;48.426;1.500;2022-11-20T06:18:45;8.70;97.70
62363;DHT22;48396;48.426;1.500;2022-11-20T06:21:18;8.90;97.50
62363;DHT22;48396;48.426;1.500;2022-11-20T06:23:45;8.80;97.60
62363;DHT22;48396;48.426;1.500;2022-11-20T06:26:13;8.70;97.50
62363;DHT22;48396;48.426;1.500;2022-11-20T06:28:39;8.90;97.50
62363;DHT22;48396;48.426;1.500;2022-11-20T06:31:05;8.90;97.60
62363;DHT22;48396;48.426;1.500;2022-11-20T06:33:31;8.90;97.50
62363;DHT22;48396;48.426;1.500;2022-11-20T06:35:58;8.60;97.70
62363;DHT22;48396;48.426;1.500;2022-11-20T06:38:25;8.60;98.00
62363;DHT22;48396;48.426;1.500;2022-11-20T06:40:51;8.60;98.00
62363;DHT22;48396;48.426;1.500;2022-11-20T06:43:17;8.80;97.90
62363;DHT22;48396;48.426;1.500;2022-11-20T06:45:43;8.60;98.20
62363;DHT22;48396;48.426;1.500;2022-11-20T06:48:09;8.20;98.60
62363;DHT22;48396;48.426;1.500;2022-11-20T06:50:37;8.00;99.60
62363;DHT22;48396;48.426;1.500;2022-11-20T06:53:03;7.90;99.40
62363;DHT22;48396;48.426;1.500;2022-11-20T06:55:30;7.70;99.90
62363;DHT22;48396;48.426;1.500;2022-11-20T06:57:56;7.60;99.90
62363;DHT22;48396;48.426;1.500;2022-11-20T07:00:22;7.70;99.90
62363;DHT22;48396;48.426;1.500;2022-11-20T07:02:48;7.60;99.90
62363;DHT22;48396;48.426;1.500;2022-11-20T07:05:14;7.70;99.90
62363;DHT22;48396;48.426;1.500;2022-11-20T07:07:39;7.90;99.90
62363;DHT22;48396;48.426;1.500;2022-11-20T07:10:05;7.90;99.90
62363;DHT22;48396;48.426;1.500;2022-11-20T07:12:31;7.90;99.90
62363;DHT22;48396;48.426;1.500;2022-11-20T07:14:57;7.80;99.90
62363;DHT22;48396;48.426;1.500;2022-11-20T07:17:23;8.00;99.90
62363;DHT22;48396;48.426;1.500;2022-11-20T07:19:48;8.00;99.90
62363;DHT22;48396;48.426;1.500;2022-11-20T07:22:14;8.30;99.90
62363;DHT22;48396;48.426;1.500;2022-11-20T07:24:40;8.30;99.80
62363;DHT22;48396;48.426;1.500;2022-11-20T07:27:06;8.20;99.90
62363;DHT22;48396;48.426;1.500;2022-11-20T07:29:31;8.20;99.90
62363;DHT22;48396;48.426;1.500;2022-11-20T07:31:57;8.20;99.90
62363;DHT22;48396;48.426;1.500;2022-11-20T07:34:23;8.50;99.70
62363;DHT22;48396;48.426;1.500;2022-11-20T07:36:49;8.20;99.90
62363;DHT22;48396;48.426;1.500;2022-11-20T07:39:14;7.80;99.90
62363;DHT22;48396;48.426;1.500;2022-11-20T07:41:40;7.70;99.90
62363;DHT22;48396;48.426;1.500;2022-11-20T07:44:06;7.80;99.90
62363;DHT22;48396;48.426;1.500;2022-11-20T07:46:32;7.60;99.90
62363;DHT22;48396;48.426;1.500;2022-11-20T07:48:57;7.50;99.90
62363;DHT22;48396;48.426;1.500;2022-11-20T07:51:23;7.40;99.90
62363;DHT22;48396;48.426;1.500;2022-11-20T07:53:52;7.40;99.90
62363;DHT22;48396;48.426;1.500;2022-11-20T07:56:18;7.40;99.90
62363;DHT22;48396;48.426;1.500;2022-11-20T07:58:44;7.50;99.90
62363;DHT22;48396;48.426;1.500;2022-11-20T08:01:10;7.60;99.90
62363;DHT22;48396;48.426;1.500;2022-11-20T08:03:36;7.60;99.90
62363;DHT22;48396;48.426;1.500;2022-11-20T08:06:05;7.60;99.90
62363;DHT22;48396;48.426;1.500;2022-11-20T08:08:31;7.70;99.90
62363;DHT22;48396;48.426;1.500;2022-11-20T08:10:57;7.80;99.90
62363;DHT22;48396;48.426;1.500;2022-11-20T08:13:43;7.70;99.90
62363;DHT22;48396;48.426;1.500;2022-11-20T08:16:28;7.80;99.90
62363;DHT22;48396;48.426;1.500;2022-11-20T08:18:54;8.00;99.90
62363;DHT22;48396;48.426;1.500;2022-11-20T08:21:20;7.90;99.90
62363;DHT22;48396;48.426;1.500;2022-11-20T08:23:46;7.90;99.90
62363;DHT22;48396;48.426;1.500;2022-11-20T08:26:11;8.00;99.90
62363;DHT22;48396;48.426;1.500;2022-11-20T08:28:37;8.00;99.90
62363;DHT22;48396;48.426;1.500;2022-11-20T08:31:03;8.10;99.90
62363;DHT22;48396;48.426;1.500;2022-11-20T08:33:29;8.20;99.90
62363;DHT22;48396;48.426;1.500;2022-11-20T08:36:02;8.20;99.90
62363;DHT22;48396;48.426;1.500;2022-11-20T08:38:29;8.00;99.90
62363;DHT22;48396;48.426;1.500;2022-11-20T08:41:02;8.00;99.90
62363;DHT22;48396;48.426;1.500;2022-11-20T08:43:47;8.00;99.90
62363;DHT22;48396;48.426;1.500;2022-11-20T08:46:13;8.10;99.90
62363;DHT22;48396;48.426;1.500;2022-11-20T08:48:39;8.40;99.90
62363;DHT22;48396;48.426;1.500;2022-11-20T08:51:05;8.30;99.90
62363;DHT22;48396;48.426;1.500;2022-11-20T08:53:30;8.50;99.90
62363;DHT22;48396;48.426;1.500;2022-11-20T08:55:57;8.40;99.90
62363;DHT22;48396;48.426;1.500;2022-11-20T08:58:23;8.20;99.90
62363;DHT22;48396;48.426;1.500;2022-11-20T09:00:51;8.10;99.90
62363;DHT22;48396;48.426;1.500;2022-11-20T09:03:17;8.40;99.90
62363;DHT22;48396;48.426;1.500;2022-11-20T09:05:42;8.20;99.90
62363;DHT22;48396;48.426;1.500;2022-11-20T09:08:08;8.10;99.90
62363;DHT22;48396;48.426;1.500;2022-11-20T09:10:34;8.20;99.90
62363;DHT22;48396;48.426;1.500;2022-11-20T09:13:00;8.10;99.90
62363;DHT22;48396;48.426;1.500;2022-11-20T09:15:27;8.20;99.90
62363;DHT22;48396;48.426;1.500;2022-11-20T09:17:58;8.20;99.90
62363;DHT22;48396;48.426;1.500;2022-11-20T09:20:24;8.60;99.90
62363;DHT22;48396;48.426;1.500;2022-11-20T09:22:50;8.90;99.90
62363;DHT22;48396;48.426;1.500;2022-11-20T09:25:16;8.70;99.90
62363;DHT22;48396;48.426;1.500;2022-11-20T09:27:41;8.70;99.90
62363;DHT22;48396;48.426;1.500;2022-11-20T09:30:10;8.50;99.90
62363;DHT22;48396;48.426;1.500;2022-11-20T09:32:38;8.50;99.90
62363;DHT22;48396;48.426;1.500;2022-11-20T09:35:04;8.20;99.90
62363;DHT22;48396;48.426;1.500;2022-11-20T09:37:30;8.20;99.90
62363;DHT22;48396;48.426;1.500;2022-11-20T09:39:56;8.20;99.90
62363;DHT22;48396;48.426;1.500;2022-11-20T09:56:12;8.40;99.90
62363;DHT22;48396;48.426;1.500;2022-11-20T09:58:52;8.50;99.90
62363;DHT22;48396;48.426;1.500;2022-11-20T10:01:22;8.50;99.90
62363;DHT22;48396;48.426;1.500;2022-11-20T10:06:37;8.10;99.90
62363;DHT22;48396;48.426;1.500;2022-11-20T10:09:29;8.20;99.90
62363;DHT22;48396;48.426;1.500;2022-11-20T10:12:23;8.00;99.90
62363;DHT22;48396;48.426;1.500;2022-11-20T10:25:39;8.60;99.90
62363;DHT22;48396;48.426;1.500;2022-11-20T10:31:44;8.50;99.90
62363;DHT22;48396;48.426;1.500;2022-11-20T10:34:28;8.60;99.90
62363;DHT22;48396;48.426;1.500;2022-11-20T10:36:57;8.20;99.90
62363;DHT22;48396;48.426;1.500;2022-11-20T10:42:11;8.10;99.90
62363;DHT22;48396;48.426;1.500;2022-11-20T10:44:39;8.10;99.90
62363;DHT22;48396;48.426;1.500;2022-11-20T10:47:30;8.10;99.90
62363;DHT22;48396;48.426;1.500;2022-11-20T10:50:00;8.20;99.90
62363;DHT22;48396;48.426;1.500;2022-11-20T10:55:45;8.30;99.90
62363;DHT22;48396;48.426;1.500;2022-11-20T10:58:38;8.30;99.90
62363;DHT22;48396;48.426;1.500;2022-11-20T11:01:21;8.60;99.90
62363;DHT22;48396;48.426;1.500;2022-11-20T11:03:50;8.50;99.90
62363;DHT22;48396;48.426;1.500;2022-11-20T11:06:34;8.50;99.90
62363;DHT22;48396;48.426;1.500;2022-11-20T11:09:06;8.40;99.90
62363;DHT22;48396;48.426;1.500;2022-11-20T11:11:34;8.50;99.90
62363;DHT22;48396;48.426;1.500;2022-11-20T11:14:15;8.40;99.90
62363;DHT22;48396;48.426;1.500;2022-11-20T11:16:58;8.40;99.90
62363;DHT22;48396;48.426;1.500;2022-11-20T11:19:24;8.40;99.90
62363;DHT22;48396;48.426;1.500;2022-11-20T11:21:54;8.50;99.90
62363;DHT22;48396;48.426;1.500;2022-11-20T11:24:27;8.50;99.90
62363;DHT22;48396;48.426;1.500;2022-11-20T11:26:58;8.80;99.90
62363;DHT22;48396;48.426;1.500;2022-11-20T11:29:25;8.90;99.90
62363;DHT22;48396;48.426;1.500;2022-11-20T11:32:05;9.00;99.90
62363;DHT22;48396;48.426;1.500;2022-11-20T11:34:31;9.20;99.90
62363;DHT22;48396;48.426;1.500;2022-11-20T11:36:58;9.20;99.90
62363;DHT22;48396;48.426;1.500;2022-11-20T11:39:27;9.00;99.90
62363;DHT22;48396;48.426;1.500;2022-11-20T11:41:54;9.10;99.90
62363;DHT22;48396;48.426;1.500;2022-11-20T11:44:23;9.20;99.90
62363;DHT22;48396;48.426;1.500;2022-11-20T11:47:22;9.10;99.90
62363;DHT22;48396;48.426;1.500;2022-11-20T11:49:48;9.10;99.90
62363;DHT22;48396;48.426;1.500;2022-11-20T11:52:20;9.00;99.90
62363;DHT22;48396;48.426;1.500;2022-11-20T11:54:58;8.90;99.90
62363;DHT22;48396;48.426;1.500;2022-11-20T11:57:46;8.90;99.90
62363;DHT22;48396;48.426;1.500;2022-11-20T12:00:16;8.80;99.90
62363;DHT22;48396;48.426;1.500;2022-11-20T12:05:24;9.20;99.90
62363;DHT22;48396;48.426;1.500;2022-11-20T12:08:17;9.20;99.90
62363;DHT22;48396;48.426;1.500;2022-11-20T12:10:53;9.20;99.90
62363;DHT22;48396;48.426;1.500;2022-11-20T12:16:00;9.40;99.90
62363;DHT22;48396;48.426;1.500;2022-11-20T12:18:27;9.60;99.90
62363;DHT22;48396;48.426;1.500;2022-11-20T12:40:32;9.50;99.90
62363;DHT22;48396;48.426;1.500;2022-11-20T12:56:53;9.70;99.90
62363;DHT22;48396;48.426;1.500;2022-11-20T13:07:44;10.20;99.90
62363;DHT22;48396;48.426;1.500;2022-11-20T13:10:26;10.20;99.90
62363;DHT22;48396;48.426;1.500;2022-11-20T13:16:19;10.50;99.90
62363;DHT22;48396;48.426;1.500;2022-11-20T13:18:49;10.50;99.90
62363;DHT22;48396;48.426;1.500;2022-11-20T13:21:22;10.60;99.90
62363;DHT22;48396;48.426;1.500;2022-11-20T13:23:48;10.60;99.90
62363;DHT22;48396;48.426;1.500;2022-11-20T13:26:20;10.70;99.90
62363;DHT22;48396;48.426;1.500;2022-11-20T13:29:05;10.80;99.90
62363;DHT22;48396;48.426;1.500;2022-11-20T13:31:35;10.80;99.90
62363;DHT22;48396;48.426;1.500;2022-11-20T13:34:04;11.00;99.90
62363;DHT22;48396;48.426;1.500;2022-11-20T13:36:31;11.10;99.90
62363;DHT22;48396;48.426;1.500;2022-11-20T13:38:58;11.00;99.90
62363;DHT22;48396;48.426;1.500;2022-11-20T13:41:26;11.10;99.90
62363;DHT22;48396;48.426;1.500;2022-11-20T13:46:41;11.10;99.90
62363;DHT22;48396;48.426;1.500;2022-11-20T13:49:16;11.10;99.90
62363;DHT22;48396;48.426;1.500;2022-11-20T13:51:48;11.10;99.90
62363;DHT22;48396;48.426;1.500;2022-11-20T13:54:48;11.10;99.90
62363;DHT22;48396;48.426;1.500;2022-11-20T14:02:29;11.50;99.90
62363;DHT22;48396;48.426;1.500;2022-11-20T14:04:58;11.40;99.90
62363;DHT22;48396;48.426;1.500;2022-11-20T14:07:35;11.60;99.90
62363;DHT22;48396;48.426;1.500;2022-11-20T14:10:02;11.80;99.90
62363;DHT22;48396;48.426;1.500;2022-11-20T14:12:32;11.90;99.90
62363;DHT22;48396;48.426;1.500;2022-11-20T14:14:59;11.90;99.90
62363;DHT22;48396;48.426;1.500;2022-11-20T14:17:32;12.00;99.90
62363;DHT22;48396;48.426;1.500;2022-11-20T14:20:02;11.90;99.90
62363;DHT22;48396;48.426;1.500;2022-11-20T14:22:28;12.00;99.90
62363;DHT22;48396;48.426;1.500;2022-11-20T14:25:23;11.70;99.90
62363;DHT22;48396;48.426;1.500;2022-11-20T14:27:57;11.70;99.90
62363;DHT22;48396;48.426;1.500;2022-11-20T14:30:25;11.90;99.90
62363;DHT22;48396;48.426;1.500;2022-11-20T14:32:53;12.10;99.90
62363;DHT22;48396;48.426;1.500;2022-11-20T14:35:28;12.20;99.90
62363;DHT22;48396;48.426;1.500;2022-11-20T14:37:55;12.20;99.90
62363;DHT22;48396;48.426;1.500;2022-11-20T14:40:31;12.20;99.90
62363;DHT22;48396;48.426;1.500;2022-11-20T14:42:59;12.30;99.90
62363;DHT22;48396;48.426;1.500;2022-11-20T14:45:26;12.30;99.90
62363;DHT22;48396;48.426;1.500;2022-11-20T14:47:54;12.30;99.90
62363;DHT22;48396;48.426;1.500;2022-11-20T14:50:26;12.20;99.90
62363;DHT22;48396;48.426;1.500;2022-11-20T14:55:38;12.20;99.90
62363;DHT22;48396;48.426;1.500;2022-11-20T14:58:06;12.30;99.90
62363;DHT22;48396;48.426;1.500;2022-11-20T15:01:12;12.30;99.90
62363;DHT22;48396;48.426;1.500;2022-11-20T15:03:39;12.30;99.90
62363;DHT22;48396;48.426;1.500;2022-11-20T15:06:07;12.60;99.90
62363;DHT22;48396;48.426;1.500;2022-11-20T15:08:33;12.50;99.90
62363;DHT22;48396;48.426;1.500;2022-11-20T15:10:59;12.30;99.90
62363;DHT22;48396;48.426;1.500;2022-11-20T15:13:37;12.20;99.90
62363;DHT22;48396;48.426;1.500;2022-11-20T15:16:15;12.30;99.90
62363;DHT22;48396;48.426;1.500;2022-11-20T15:18:43;12.30;99.90
62363;DHT22;48396;48.426;1.500;2022-11-20T15:21:17;12.30;99.90
62363;DHT22;48396;48.426;1.500;2022-11-20T15:23:43;12.10;99.90
62363;DHT22;48396;48.426;1.500;2022-11-20T15:26:11;12.00;99.90
62363;DHT22;48396;48.426;1.500;2022-11-20T15:28:43;12.10;99.90
62363;DHT22;48396;48.426;1.500;2022-11-20T15:31:16;12.20;99.90
62363;DHT22;48396;48.426;1.500;2022-11-20T15:33:42;12.00;99.90
62363;DHT22;48396;48.426;1.500;2022-11-20T15:36:09;12.10;99.90
62363;DHT22;48396;48.426;1.500;2022-11-20T15:38:35;12.10;99.90
62363;DHT22;48396;48.426;1.500;2022-11-20T15:41:01;12.10;99.90
62363;DHT22;48396;48.426;1.500;2022-11-20T15:43:26;12.20;99.90
62363;DHT22;48396;48.426;1.500;2022-11-20T15:46:09;12.10;99.90
62363;DHT22;48396;48.426;1.500;2022-11-20T15:48:39;12.20;99.90
62363;DHT22;48396;48.426;1.500;2022-11-20T15:53:34;12.20;99.90
62363;DHT22;48396;48.426;1.500;2022-11-20T15:56:01;12.00;99.90
62363;DHT22;48396;48.426;1.500;2022-11-20T15:58:26;12.00;99.90
62363;DHT22;48396;48.426;1.500;2022-11-20T16:00:52;11.90;99.90
62363;DHT22;48396;48.426;1.500;2022-11-20T16:03:19;12.00;99.90
62363;DHT22;48396;48.426;1.500;2022-11-20T16:05:45;12.00;99.90
62363;DHT22;48396;48.426;1.500;2022-11-20T16:08:11;11.90;99.90
62363;DHT22;48396;48.426;1.500;2022-11-20T16:10:37;11.80;99.90
62363;DHT22;48396;48.426;1.500;2022-11-20T16:13:03;11.70;99.90
62363;DHT22;48396;48.426;1.500;2022-11-20T16:15:51;11.60;99.90
62363;DHT22;48396;48.426;1.500;2022-11-20T16:18:19;11.50;99.90
62363;DHT22;48396;48.426;1.500;2022-11-20T16:20:47;11.50;99.90
62363;DHT22;48396;48.426;1.500;2022-11-20T16:23:13;11.40;99.90
62363;DHT22;48396;48.426;1.500;2022-11-20T16:25:39;11.60;99.90
62363;DHT22;48396;48.426;1.500;2022-11-20T16:28:05;11.50;99.90
62363;DHT22;48396;48.426;1.500;2022-11-20T16:30:32;11.40;99.90
62363;DHT22;48396;48.426;1.500;2022-11-20T16:32:59;11.30;99.90
62363;DHT22;48396;48.426;1.500;2022-11-20T16:35:29;11.10;99.90
62363;DHT22;48396;48.426;1.500;2022-11-20T16:37:55;11.50;99.90
62363;DHT22;48396;48.426;1.500;2022-11-20T16:40:22;11.30;99.90
62363;DHT22;48396;48.426;1.500;2022-11-20T16:42:47;11.30;99.90
62363;DHT22;48396;48.426;1.500;2022-11-20T16:45:13;11.40;99.90
62363;DHT22;48396;48.426;1.500;2022-11-20T16:47:39;11.30;99.90
62363;DHT22;48396;48.426;1.500;2022-11-20T16:50:05;11.40;99.90
62363;DHT22;48396;48.426;1.500;2022-11-20T16:52:31;11.40;99.90
62363;DHT22;48396;48.426;1.500;2022-11-20T16:54:57;11.50;99.90
62363;DHT22;48396;48.426;1.500;2022-11-20T16:57:24;11.70;99.90
62363;DHT22;48396;48.426;1.500;2022-11-20T16:59:49;12.00;99.90
62363;DHT22;48396;48.426;1.500;2022-11-20T17:02:15;11.80;99.90
62363;DHT22;48396;48.426;1.500;2022-11-20T17:04:41;11.70;99.90
62363;DHT22;48396;48.426;1.500;2022-11-20T17:07:07;11.50;99.90
62363;DHT22;48396;48.426;1.500;2022-11-20T17:09:33;11.20;99.90
62363;DHT22;48396;48.426;1.500;2022-11-20T17:11:59;11.20;99.90
62363;DHT22;48396;48.426;1.500;2022-11-20T17:14:25;11.10;99.90
62363;DHT22;48396;48.426;1.500;2022-11-20T17:16:50;10.90;99.90
62363;DHT22;48396;48.426;1.500;2022-11-20T17:19:16;11.00;99.90
62363;DHT22;48396;48.426;1.500;2022-11-20T17:21:42;11.10;99.90
62363;DHT22;48396;48.426;1.500;2022-11-20T17:24:10;11.30;99.90
62363;DHT22;48396;48.426;1.500;2022-11-20T17:26:38;11.40;99.90
62363;DHT22;48396;48.426;1.500;2022-11-20T17:29:06;11.30;99.90
62363;DHT22;48396;48.426;1.500;2022-11-20T17:31:33;11.10;99.90
62363;DHT22;48396;48.426;1.500;2022-11-20T17:33:59;11.00;99.90
62363;DHT22;48396;48.426;1.500;2022-11-20T17:36:27;11.10;99.90